SIK weather

Sikari Airstrip
Sikari, Papua, Indonesia

Public forecast

Using degrees Celsius for public forecast. Weather courtesy of forecast.io.

Closest aviation weather report (METAR) to Sikari Airstrip

Closest report is Sentani International Airport, 128.2 nm (237.5 km) E. Retrieved 2020/01/29 14:30 UTC (0 seconds ago):

WAJJ 291430Z 29006KT 9999 FEW013 27/24 Q1009 NOSIG

Closest aviation forecast (TAF) to Sikari Airstrip

Forecast is more than 12 hours old.

Closest forecast is Sentani International Airport, 128.2 nm (237.5 km) E. Retrieved 2013/03/11 12:00 UTC (7 years ago):

TAF WAJJ 111100Z 1112/1212 29006KT 5000 HZ SCT016 TEMPO 1113/1121 4000 RA FEW014CB BECMG 1200/1202 28012KT 9999 TEMPO 1207/1212 6000 RA FEW014CB